Terminal Aerodrome Forecast
Issued by NWS

Home | Current Version | Previous Version | Text Only | Print | Product List | Glossary On
Versions: 1 2 3 4 5 6 7 8 9 10 11 12 13 14 15 16 17
000
FTUS45 KLKN 210520
TAFEKO
TAF
KEKO 210520Z 2106/2206 08005KT P6SM VCSH BKN035 OVC080
      TEMPO 2106/2110 2SM -SN BR BKN020
     FM212100 24007KT 6SM BR VCSH SCT010 BKN018 OVC030
     FM220000 23005KT P6SM SCT020 OVC040=

USA.gov is the U.S. government's official web portal to all federal, state and local government web resources and services.